地図

経路データ

SID SEASON NUMBER BASIN SUBBASIN NAME ISO_TIME NATURE LAT LON WMO_WIND WMO_PRES WMO_AGENCY TRACK_TYPE DIST2LAND LANDFALL IFLAG USA_AGENCY USA_ATCF_ID USA_LAT USA_LON USA_RECORD USA_STATUS USA_WIND USA_PRES USA_SSHS USA_R34_NE USA_R34_SE USA_R34_SW USA_R34_NW USA_R50_NE USA_R50_SE USA_R50_SW USA_R50_NW USA_R64_NE USA_R64_SE USA_R64_SW USA_R64_NW USA_POCI USA_ROCI USA_RMW USA_EYE TOKYO_LAT TOKYO_LON TOKYO_GRADE TOKYO_WIND TOKYO_PRES TOKYO_R50_DIR TOKYO_R50_LONG TOKYO_R50_SHORT TOKYO_R30_DIR TOKYO_R30_LONG TOKYO_R30_SHORT TOKYO_LAND CMA_LAT CMA_LON CMA_CAT CMA_WIND CMA_PRES HKO_LAT HKO_LON HKO_CAT HKO_WIND HKO_PRES NEWDELHI_LAT NEWDELHI_LON NEWDELHI_GRADE NEWDELHI_WIND NEWDELHI_PRES NEWDELHI_CI NEWDELHI_DP NEWDELHI_POCI REUNION_LAT REUNION_LON REUNION_TYPE REUNION_WIND REUNION_PRES REUNION_TNUM REUNION_CI REUNION_RMW REUNION_R34_NE REUNION_R34_SE REUNION_R34_SW REUNION_R34_NW REUNION_R50_NE REUNION_R50_SE REUNION_R50_SW REUNION_R50_NW REUNION_R64_NE REUNION_R64_SE REUNION_R64_SW REUNION_R64_NW BOM_LAT BOM_LON BOM_TYPE BOM_WIND BOM_PRES BOM_TNUM BOM_CI BOM_RMW BOM_R34_NE BOM_R34_SE BOM_R34_SW BOM_R34_NW BOM_R50_NE BOM_R50_SE BOM_R50_SW BOM_R50_NW BOM_R64_NE BOM_R64_SE BOM_R64_SW BOM_R64_NW BOM_ROCI BOM_POCI BOM_EYE BOM_POS_METHOD BOM_PRES_METHOD NADI_LAT NADI_LON NADI_CAT NADI_WIND NADI_PRES WELLINGTON_LAT WELLINGTON_LON WELLINGTON_WIND WELLINGTON_PRES DS824_LAT DS824_LON DS824_STAGE DS824_WIND DS824_PRES TD9636_LAT TD9636_LON TD9636_STAGE TD9636_WIND TD9636_PRES TD9635_LAT TD9635_LON TD9635_WIND TD9635_PRES TD9635_ROCI NEUMANN_LAT NEUMANN_LON NEUMANN_CLASS NEUMANN_WIND NEUMANN_PRES MLC_LAT MLC_LON MLC_CLASS MLC_WIND MLC_PRES USA_GUST BOM_GUST BOM_GUST_PER REUNION_GUST REUNION_GUST_PER USA_SEAHGT USA_SEARAD_NE USA_SEARAD_SE USA_SEARAD_SW USA_SEARAD_NW STORM_SPEED STORM_DIR
1975166N16116 1975 44 WP MM NOT_NAMED 1975-06-14 12:00:00 TS 16.0000 115.500 main 449 449 __O___________ -1 16.0000 115.500 0 1002 11 296
1975166N16116 1975 44 WP MM NOT_NAMED 1975-06-14 15:00:00 TS 16.2551 114.967 main 503 480 __P___________ -1 16.2551 114.967 0 1002 12 300
1975166N16116 1975 44 WP MM NOT_NAMED 1975-06-14 18:00:00 TS 16.6000 114.400 main 480 403 __O___________ -1 16.6000 114.400 0 1002 14 306
1975166N16116 1975 44 WP MM NOT_NAMED 1975-06-14 21:00:00 TS 17.0726 113.786 main 397 320 __P___________ -1 17.0726 113.786 0 1001 15 308
1975166N16116 1975 44 WP MM NOT_NAMED 1975-06-15 00:00:00 TS 17.5000 113.200 main 320 262 __O___________ -1 17.5000 113.200 0 1001 12 299
1975166N16116 1975 44 WP MM NOT_NAMED 1975-06-15 03:00:00 TS 17.6725 112.645 main 253 220 __P___________ -1 17.6725 112.645 0 1001 9 289
1975166N16116 1975 44 WP MM NOT_NAMED 1975-06-15 06:00:00 TS 17.8000 112.300 main 220 205 __O___________ -1 17.8000 112.300 0 1001 5 324
1975166N16116 1975 44 WP MM NOT_NAMED 1975-06-15 09:00:00 TS 18.0999 112.317 main 205 200 __P___________ -1 18.0999 112.317 0 1000 6 18
1975166N16116 1975 44 WP MM NOT_NAMED 1975-06-15 12:00:00 TS 18.4000 112.500 main 207 199 __O___________ -1 18.4000 112.500 0 19 999 6 30
1975166N16116 1975 44 WP MM NOT_NAMED 1975-06-15 15:00:00 TS 18.6100 112.630 main 201 201 __P___________ -1 18.6100 112.630 0 19 998 4 32
1975166N16116 1975 44 WP MM NOT_NAMED 1975-06-15 18:00:00 TS 18.7000 112.700 main 205 205 __O___________ -1 18.7000 112.700 0 19 998 0 0
1975166N16116 1975 44 WP MM NOT_NAMED 1975-06-15 21:00:00 TS 18.6225 112.645 main 201 199 __P___________ -1 18.6225 112.645 0 21 998 3 224
1975166N16116 1975 44 WP MM NOT_NAMED 1975-06-16 00:00:00 TS 18.5000 112.500 main 199 183 __O___________ -1 18.5000 112.500 1 23 998 3 246
1975166N16116 1975 44 WP MM NOT_NAMED 1975-06-16 03:00:00 TS 18.4850 112.315 main 183 167 __P___________ -1 18.4850 112.315 1 26 998 4 270
1975166N16116 1975 44 WP MM NOT_NAMED 1975-06-16 06:00:00 TS 18.5000 112.100 main 167 147 __O___________ -1 18.5000 112.100 1 29 998 4 271
1975166N16116 1975 44 WP MM NOT_NAMED 1975-06-16 09:00:00 TS 18.4925 111.892 main 147 143 __P___________ -1 18.4925 111.892 1 29 998 2 321
1975166N16116 1975 44 WP MM NOT_NAMED 1975-06-16 12:00:00 TS 18.6600 111.960 main 145 130 __OO__________ -1 18.5000 111.700 1 29 998 19.3000 113.000 TD 25 998 4 6
1975166N16116 1975 44 WP MM NOT_NAMED 1975-06-16 15:00:00 TS 18.8508 111.939 main 122 100 __PP__________ -1 18.5275 111.542 1 29 998 19.4975 112.732 TD 25 998 4 343
1975166N16116 1975 44 WP MM NOT_NAMED 1975-06-16 18:00:00 TS 19.0714 111.829 main 100 71 __OO__________ -1 18.6000 111.400 1 29 998 19.7000 112.400 TD 25 998 6 326
1975166N16116 1975 44 WP MM NOT_NAMED 1975-06-16 21:00:00 TS 19.3150 111.608 main 71 38 __PP__________ -1 18.7350 111.250 1 29 998 19.8951 111.965 TD 25 998 6 307
1975166N16116 1975 44 WP MM NOT_NAMED 1975-06-17 00:00:00 TS 19.4500 111.300 main 33 15 __OO__________ -1 18.9000 111.100 1 29 998 20.0000 111.500 TD 25 998 6 290
1975166N16116 1975 44 WP MM NOT_NAMED 1975-06-17 03:00:00 TS 19.5048 111.044 main 10 0 __PP__________ -1 19.0648 111.002 1 26 998 19.9449 111.085 TD 25 997 5 275
1975166N16116 1975 44 WP MM NOT_NAMED 1975-06-17 06:00:00 TS 19.5000 110.750 main 0 0 __OO__________ -1 19.2000 110.800 1 23 998 19.8000 110.700 TD 25 996 7 268
1975166N16116 1975 44 WP MM NOT_NAMED 1975-06-17 09:00:00 TS 19.4801 110.336 main 0 0 __PP__________ -1 19.2878 110.338 1 21 998 19.6724 110.335 TD 25 996 8 263
1975166N16116 1975 44 WP MM NOT_NAMED 1975-06-17 12:00:00 TS 19.4000 109.900 main 0 0 __OO__________ -1 19.3000 109.800 0 19 998 19.5000 110.000 TD 25 996 8 252
1975166N16116 1975 44 WP MM NOT_NAMED 1975-06-17 15:00:00 TS 19.2323 109.542 main 0 0 __PP__________ -1 19.2224 109.362 0 21 997 19.2422 109.722 TD 25 996 7 242
1975166N16116 1975 44 WP MM NOT_NAMED 1975-06-17 18:00:00 TS 19.0500 109.200 main 0 0 __OO__________ -1 19.1000 109.000 1 23 997 19.0000 109.400 TD 25 996 8 244
1975166N16116 1975 44 WP MM NOT_NAMED 1975-06-17 21:00:00 TS 18.8901 108.802 main 0 0 __PP__________ -1 18.9474 108.720 1 23 997 18.8329 108.885 TD 25 996 7 254
1975166N16116 1975 44 WP MM NOT_NAMED 1975-06-18 00:00:00 TS 18.8500 108.450 main 21 21 __OO__________ -1 18.9000 108.500 1 23 997 18.8000 108.400 TD 25 996 6 284
1975166N16116 1975 44 WP MM NOT_NAMED 1975-06-18 03:00:00 TS 19.0299 108.224 main 52 47 __PP__________ -1 19.1050 108.285 1 26 997 18.9547 108.163 TD 25 996 6 320
1975166N16116 1975 44 WP MM NOT_NAMED 1975-06-18 06:00:00 TS 19.3000 108.050 main 52 52 __OO__________ -1 19.4000 108.100 1 29 997 19.2000 108.000 TD 25 996 6 323
1975166N16116 1975 44 WP MM NOT_NAMED 1975-06-18 09:00:00 TS 19.5000 107.850 main 86 86 __PP__________ -1 19.5999 107.950 1 29 994 19.4000 107.750 TD 25 996 6 317
1975166N16116 1975 44 WP MM NOT_NAMED 1975-06-18 12:00:00 TS 19.7000 107.650 main 104 104 __OO__________ -1 19.8000 107.800 1 29 992 19.6000 107.500 TD 25 996 6 320
1975166N16116 1975 44 WP MM NOT_NAMED 1975-06-18 15:00:00 TS 19.9249 107.472 main 104 73 __PP__________ -1 20.0573 107.645 1 29 993 19.7924 107.300 TD 25 996 6 323
1975166N16116 1975 44 WP MM NOT_NAMED 1975-06-18 18:00:00 TS 20.1714 107.271 main 73 39 __OO__________ -1 20.3000 107.400 1 29 995 20.0000 107.100 TD 25 996 7 313
1975166N16116 1975 44 WP MM NOT_NAMED 1975-06-18 21:00:00 TS 20.3902 106.931 main 31 0 __PP__________ -1 20.4653 106.965 1 29 995 20.2401 106.863 TD 25 996 8 300
1975166N16116 1975 44 WP MM NOT_NAMED 1975-06-19 00:00:00 TS 20.5750 106.525 main 0 0 __OO__________ -1 20.6000 106.500 1 29 995 20.5000 106.600 TD 25 996 8 296
1975166N16116 1975 44 WP MM NOT_NAMED 1975-06-19 03:00:00 TS 20.7448 106.158 main 0 0 __P___________ -1 20.7448 106.158 1 24 997 TD 7 299
1975166N16116 1975 44 WP MM NOT_NAMED 1975-06-19 06:00:00 TS 20.9000 105.900 main 0 __O___________ -1 20.9000 105.900 0 19 1000 6 303

デジタル台風データ・検索

IBTrACS Databaseについて

本データベースは、米国NOAAが公開する1842年以降の世界の熱帯低気圧のベストトラックデータアーカイブInternational Best Track Archive for Climate Stewardship (IBTrACS)を、ウェブで閲覧しやすい形式に変換したものです。

最終更新日:2021-12-06